Time;durP1;ratioP1;P1;durP2;ratioP2;P2;SDS_P1;SDS_P2;PMS_P1;PMS_P2;Temp;Humidity;BMP_temperature;BMP_pressure;BME280_temperature;BME280_humidity;BME280_pressure;Samples;Min_cycle;Max_cycle;Signal;HPM_P1;HPM_P2
2023/06/02 00:01:01;;;;;;;13.32;1.75;;;11.00;99.90;;;;;;5115268;27;20440;-90
2023/06/02 00:03:32;;;;;;;14.63;2.08;;;11.00;99.90;;;;;;5131743;27;20413;-88
2023/06/02 00:06:09;;;;;;;13.93;2.15;;;11.00;99.90;;;;;;5132526;27;20395;-88
2023/06/02 00:08:38;;;;;;;14.80;2.05;;;11.00;99.90;;;;;;5114607;27;20400;-87
2023/06/02 00:11:04;;;;;;;14.57;1.98;;;11.20;99.90;;;;;;5131996;27;20404;-89
2023/06/02 00:13:30;;;;;;;12.40;1.95;;;11.00;99.90;;;;;;5114421;27;20449;-88
2023/06/02 00:15:55;;;;;;;13.35;1.60;;;11.00;99.90;;;;;;5114825;27;20417;-89
2023/06/02 00:18:22;;;;;;;13.07;2.10;;;11.00;99.90;;;;;;5115540;27;20389;-88
2023/06/02 00:20:47;;;;;;;10.05;1.88;;;11.00;99.90;;;;;;5114580;27;20468;-89
2023/06/02 00:23:13;;;;;;;11.48;1.73;;;11.00;99.90;;;;;;5115000;27;20421;-89
2023/06/02 00:25:39;;;;;;;12.40;1.47;;;11.00;99.90;;;;;;5114283;27;20385;-88
2023/06/02 00:28:05;;;;;;;12.77;1.83;;;11.00;99.90;;;;;;5131710;27;20590;-87
2023/06/02 00:30:31;;;;;;;11.47;1.50;;;11.00;99.90;;;;;;5131439;27;20451;-88
2023/06/02 00:32:57;;;;;;;11.10;1.80;;;11.10;99.90;;;;;;5114495;27;20424;-87
2023/06/02 00:35:23;;;;;;;11.13;1.50;;;11.20;99.90;;;;;;5114451;27;20928;-87
2023/06/02 00:37:49;;;;;;;13.35;2.15;;;11.20;99.90;;;;;;5114102;27;20887;-88
2023/06/02 00:40:15;;;;;;;13.23;2.03;;;11.20;99.90;;;;;;5131590;27;20438;-88
2023/06/02 00:42:40;;;;;;;12.90;2.00;;;11.00;99.90;;;;;;5114304;27;20424;-88
2023/06/02 00:45:07;;;;;;;11.17;1.50;;;11.20;99.90;;;;;;5131492;27;20906;-88
2023/06/02 00:47:33;;;;;;;12.52;1.80;;;10.90;99.90;;;;;;5114152;27;20422;-88
2023/06/02 00:49:59;;;;;;;12.45;1.90;;;11.00;99.90;;;;;;5131890;27;20408;-88
2023/06/02 00:52:26;;;;;;;12.20;1.95;;;11.10;99.90;;;;;;5131089;27;20393;-88
2023/06/02 00:54:53;;;;;;;13.18;1.95;;;11.20;99.90;;;;;;5130910;27;20408;-88
2023/06/02 00:57:19;;;;;;;15.55;2.20;;;10.90;99.90;;;;;;5130394;27;20431;-89
2023/06/02 00:59:47;;;;;;;12.25;1.92;;;10.90;99.90;;;;;;5113751;27;20437;-89
2023/06/02 01:02:13;;;;;;;10.83;1.50;;;10.90;99.90;;;;;;5114139;27;20783;-89
2023/06/02 01:04:46;;;;;;;10.13;2.10;;;10.90;99.90;;;;;;5113542;27;20401;-88
2023/06/02 01:07:13;;;;;;;12.60;2.10;;;11.20;99.90;;;;;;5113480;27;20907;-87
2023/06/02 01:09:41;;;;;;;12.68;2.10;;;10.80;99.90;;;;;;5130831;27;20500;-88
2023/06/02 01:12:07;;;;;;;13.40;2.00;;;10.80;99.90;;;;;;5130752;27;20393;-89
2023/06/02 01:14:33;;;;;;;13.10;1.85;;;10.80;99.90;;;;;;5130813;27;20407;-88
2023/06/02 01:16:59;;;;;;;11.93;1.87;;;10.80;99.90;;;;;;5113602;27;20762;-89
2023/06/02 01:19:26;;;;;;;14.75;1.75;;;10.80;99.90;;;;;;5113608;27;20476;-87
2023/06/02 01:22:00;;;;;;;14.32;1.80;;;11.10;99.90;;;;;;5130158;27;20396;-88
2023/06/02 01:24:40;;;;;;;12.27;1.75;;;10.70;99.90;;;;;;5113168;27;20932;-89
2023/06/02 01:27:12;;;;;;;13.68;2.05;;;10.70;99.90;;;;;;5113592;27;20484;-89
2023/06/02 01:29:38;;;;;;;11.52;1.65;;;10.90;99.90;;;;;;5113581;27;20425;-90
2023/06/02 01:32:25;;;;;;;12.47;1.80;;;10.70;99.90;;;;;;5130665;27;20955;-87
2023/06/02 01:34:56;;;;;;;13.20;2.13;;;10.70;99.90;;;;;;5130140;27;20938;-88
2023/06/02 01:37:23;;;;;;;13.73;1.92;;;10.70;99.90;;;;;;5131267;27;20783;-87
2023/06/02 01:39:49;;;;;;;10.60;1.70;;;10.70;99.90;;;;;;5113224;27;20767;-88
2023/06/02 01:42:16;;;;;;;12.32;2.05;;;10.70;99.90;;;;;;5112769;27;20417;-88
2023/06/02 01:44:43;;;;;;;13.77;2.40;;;10.80;99.90;;;;;;5112839;27;20477;-88
2023/06/02 01:47:12;;;;;;;13.63;1.90;;;10.70;99.90;;;;;;5112938;27;20405;-88
2023/06/02 01:49:38;;;;;;;13.93;2.45;;;10.70;99.90;;;;;;5113112;27;20405;-88
2023/06/02 01:52:04;;;;;;;13.10;1.70;;;10.90;99.90;;;;;;5112676;27;20473;-89
2023/06/02 01:54:29;;;;;;;15.07;2.00;;;10.70;99.90;;;;;;5113297;27;20393;-88
2023/06/02 01:56:55;;;;;;;14.83;2.17;;;10.80;99.90;;;;;;5112475;27;20434;-88
2023/06/02 01:59:21;;;;;;;10.07;1.85;;;10.70;99.90;;;;;;5112472;27;20393;-89
2023/06/02 02:01:47;;;;;;;12.53;2.03;;;10.70;99.90;;;;;;5113046;27;20413;-88
2023/06/02 02:04:12;;;;;;;13.57;1.87;;;10.80;99.90;;;;;;5112315;27;20484;-88
2023/06/02 02:06:39;;;;;;;12.35;2.05;;;10.70;99.90;;;;;;5113117;27;20445;-88
2023/06/02 02:09:07;;;;;;;11.40;1.83;;;10.80;99.90;;;;;;5112068;27;20454;-88
2023/06/02 02:11:33;;;;;;;14.67;2.10;;;10.80;99.90;;;;;;5112570;27;20405;-88
2023/06/02 02:14:00;;;;;;;13.27;2.17;;;10.70;99.90;;;;;;5112354;27;20453;-88
2023/06/02 02:16:25;;;;;;;15.17;1.90;;;10.80;99.90;;;;;;5112512;27;20463;-89
2023/06/02 02:18:56;;;;;;;13.85;2.25;;;10.70;99.90;;;;;;5112446;27;20409;-88
2023/06/02 02:21:22;;;;;;;15.57;1.92;;;10.80;99.90;;;;;;5112512;27;20743;-88
2023/06/02 02:23:48;;;;;;;16.65;2.50;;;10.80;99.90;;;;;;5112078;27;20421;-88
2023/06/02 02:26:13;;;;;;;13.73;1.90;;;10.70;99.90;;;;;;5112474;27;20978;-88
2023/06/02 02:28:39;;;;;;;14.98;2.42;;;10.90;99.90;;;;;;5129237;27;20806;-88
2023/06/02 02:31:05;;;;;;;11.93;1.77;;;11.10;99.90;;;;;;5111759;27;20471;-89
2023/06/02 02:33:31;;;;;;;13.20;1.70;;;10.80;99.90;;;;;;5129489;27;20412;-88
2023/06/02 02:35:56;;;;;;;13.95;2.22;;;10.80;99.90;;;;;;5147822;27;20397;-88
2023/06/02 02:38:22;;;;;;;17.65;2.03;;;10.80;99.90;;;;;;5111777;27;20397;-88
2023/06/02 02:40:48;;;;;;;11.07;1.77;;;11.10;99.90;;;;;;5112309;27;20405;-88
2023/06/02 02:43:15;;;;;;;13.43;1.95;;;10.80;99.90;;;;;;5111419;27;20428;-89
2023/06/02 02:45:41;;;;;;;15.20;2.20;;;10.60;99.90;;;;;;5112060;27;20775;-89
2023/06/02 02:48:07;;;;;;;18.17;3.20;;;10.80;99.90;;;;;;5112338;27;20389;-89
2023/06/02 02:50:33;;;;;;;14.30;2.15;;;10.80;99.90;;;;;;5112535;27;20445;-88
2023/06/02 02:52:58;;;;;;;14.55;2.28;;;10.80;99.90;;;;;;5111896;27;20805;-87
2023/06/02 02:55:25;;;;;;;14.80;2.27;;;10.90;99.90;;;;;;5112474;27;20461;-88
2023/06/02 02:57:51;;;;;;;12.63;1.80;;;10.80;99.90;;;;;;5111977;27;20453;-88
2023/06/02 03:00:17;;;;;;;12.83;1.87;;;10.70;99.90;;;;;;5111511;27;20404;-89
2023/06/02 03:02:42;;;;;;;13.77;2.35;;;10.70;99.90;;;;;;5112037;27;20412;-89
2023/06/02 03:05:08;;;;;;;14.70;2.08;;;10.90;99.90;;;;;;5111682;27;20411;-88
2023/06/02 03:07:34;;;;;;;15.48;2.35;;;10.70;99.90;;;;;;5112285;27;20417;-88
2023/06/02 03:10:00;;;;;;;13.95;2.40;;;10.70;99.90;;;;;;5129108;27;20385;-89
2023/06/02 03:12:26;;;;;;;14.93;1.92;;;10.80;99.90;;;;;;5112049;27;20393;-88
2023/06/02 03:14:51;;;;;;;16.03;2.30;;;10.80;99.90;;;;;;5111720;27;20450;-88
2023/06/02 03:17:17;;;;;;;17.00;2.53;;;10.70;99.90;;;;;;5111657;27;20403;-88
2023/06/02 03:19:43;;;;;;;13.57;2.27;;;10.90;99.90;;;;;;5111871;27;20925;-88
2023/06/02 03:22:09;;;;;;;13.23;2.30;;;10.80;99.90;;;;;;5114080;27;20428;-90
2023/06/02 03:24:34;;;;;;;14.30;2.50;;;10.80;99.90;;;;;;5115726;27;20447;-88
2023/06/02 03:27:00;;;;;;;16.42;2.42;;;10.80;99.90;;;;;;5116049;27;20755;-89
2023/06/02 03:29:26;;;;;;;15.13;2.50;;;10.80;99.90;;;;;;5116191;27;20401;-88
2023/06/02 03:31:53;;;;;;;15.02;2.63;;;11.10;99.90;;;;;;5115676;27;20460;-88
2023/06/02 03:34:18;;;;;;;16.73;2.45;;;10.80;99.90;;;;;;5132887;27;20388;-88
2023/06/02 03:36:44;;;;;;;14.52;2.80;;;10.90;99.90;;;;;;5115845;27;20401;-88
2023/06/02 03:39:10;;;;;;;13.23;2.07;;;10.90;99.90;;;;;;5115624;27;20405;-88
2023/06/02 03:41:37;;;;;;;13.77;2.00;;;10.90;99.90;;;;;;5132822;27;20395;-89
2023/06/02 03:44:03;;;;;;;16.73;2.53;;;10.80;99.90;;;;;;5115030;27;20459;-88
2023/06/02 03:46:29;;;;;;;13.43;2.25;;;11.10;99.90;;;;;;5115556;27;20454;-87
2023/06/02 03:48:55;;;;;;;15.23;2.25;;;11.40;99.90;;;;;;5115478;27;20409;-88
2023/06/02 03:51:21;;;;;;;17.52;2.72;;;11.10;99.90;;;;;;5115723;27;20432;-88
2023/06/02 03:53:49;;;;;;;15.00;2.42;;;10.90;99.90;;;;;;5132301;27;20488;-89
2023/06/02 03:56:15;;;;;;;19.17;2.57;;;11.20;99.90;;;;;;5115645;27;20725;-89
2023/06/02 03:58:41;;;;;;;15.75;2.28;;;11.00;99.90;;;;;;5115149;27;20487;-88
2023/06/02 04:01:06;;;;;;;16.13;2.37;;;11.00;99.90;;;;;;5114788;27;20512;-89
2023/06/02 04:03:36;;;;;;;18.38;2.60;;;11.00;99.90;;;;;;5115314;27;20828;-87
2023/06/02 04:06:03;;;;;;;17.03;2.47;;;11.00;99.90;;;;;;5132024;27;20440;-88
2023/06/02 04:08:29;;;;;;;16.80;2.75;;;11.10;99.90;;;;;;5132189;27;20492;-89
2023/06/02 04:10:55;;;;;;;15.65;2.47;;;11.10;99.90;;;;;;5114981;27;20401;-88
2023/06/02 04:13:21;;;;;;;18.53;2.60;;;11.10;99.90;;;;;;5115314;27;20393;-89
2023/06/02 04:15:46;;;;;;;17.67;2.72;;;11.30;99.90;;;;;;5115040;27;20397;-88
2023/06/02 04:18:12;;;;;;;19.50;2.80;;;11.20;99.90;;;;;;5114944;27;20439;-89
2023/06/02 04:20:38;;;;;;;15.40;2.80;;;11.20;99.90;;;;;;5114876;27;20393;-88
2023/06/02 04:23:03;;;;;;;13.05;2.25;;;11.40;99.90;;;;;;5131654;27;20438;-88
2023/06/02 04:25:29;;;;;;;18.43;2.30;;;11.30;99.90;;;;;;5114897;27;20796;-88
2023/06/02 04:27:55;;;;;;;13.63;2.53;;;11.30;99.90;;;;;;5131663;27;20393;-88
2023/06/02 04:30:20;;;;;;;14.73;2.37;;;11.30;99.90;;;;;;5131845;27;20405;-88
2023/06/02 04:32:46;;;;;;;16.93;2.80;;;11.40;99.90;;;;;;5131365;27;20409;-88
2023/06/02 04:35:12;;;;;;;15.77;3.10;;;11.40;99.90;;;;;;5114512;27;20400;-88
2023/06/02 04:37:38;;;;;;;17.65;3.10;;;11.50;99.90;;;;;;5114704;27;20740;-89
2023/06/02 04:40:04;;;;;;;16.73;2.90;;;11.50;99.90;;;;;;5131242;27;20425;-88
2023/06/02 04:42:32;;;;;;;19.70;3.08;;;11.50;99.90;;;;;;5114809;27;20841;-88
2023/06/02 04:45:00;;;;;;;16.73;2.55;;;11.50;99.90;;;;;;5131343;27;20794;-88
2023/06/02 04:47:27;;;;;;;15.45;3.25;;;11.60;99.90;;;;;;5131706;27;20775;-89
2023/06/02 04:49:53;;;;;;;16.17;3.10;;;11.60;99.90;;;;;;5114067;27;20394;-88
2023/06/02 04:52:19;;;;;;;16.75;2.75;;;11.60;99.90;;;;;;5113854;27;20903;-89
2023/06/02 04:54:48;;;;;;;17.55;3.17;;;11.70;99.90;;;;;;5113813;27;20457;-88
2023/06/02 04:57:15;;;;;;;19.53;3.70;;;11.70;99.90;;;;;;5131106;27;20401;-89
2023/06/02 04:59:40;;;;;;;15.68;2.95;;;11.70;99.90;;;;;;5113761;27;20409;-89
2023/06/02 05:02:06;;;;;;;16.07;2.93;;;11.70;99.90;;;;;;5113570;27;20481;-88
2023/06/02 05:04:31;;;;;;;13.53;2.70;;;11.80;99.90;;;;;;5131723;27;20971;-88
2023/06/02 05:06:57;;;;;;;18.25;3.15;;;11.70;99.90;;;;;;5113790;27;20393;-89
2023/06/02 05:09:23;;;;;;;17.20;2.83;;;11.90;99.90;;;;;;5114461;27;20400;-89
2023/06/02 05:11:48;;;;;;;16.48;3.00;;;11.90;99.90;;;;;;5113846;27;20397;-88
2023/06/02 05:14:14;;;;;;;16.10;2.30;;;12.00;99.90;;;;;;5113512;27;20484;-89
2023/06/02 05:16:44;;;;;;;11.48;3.00;;;12.00;99.90;;;;;;5113777;27;20789;-89
2023/06/02 05:19:10;;;;;;;18.17;2.92;;;12.00;99.90;;;;;;5114052;27;20514;-90
2023/06/02 05:21:35;;;;;;;16.50;2.93;;;12.10;99.90;;;;;;5113776;27;20405;-89
2023/06/02 05:24:01;;;;;;;16.43;3.17;;;12.10;99.90;;;;;;5113278;27;20934;-87
2023/06/02 05:26:27;;;;;;;17.50;3.13;;;12.20;99.90;;;;;;5131418;27;20409;-88
2023/06/02 05:28:53;;;;;;;16.37;2.97;;;12.20;99.90;;;;;;5113409;27;20421;-88
2023/06/02 05:31:19;;;;;;;16.80;3.13;;;12.20;99.90;;;;;;5113529;27;20404;-88
2023/06/02 05:33:45;;;;;;;16.50;3.50;;;12.60;99.90;;;;;;5130603;27;20385;-89
2023/06/02 05:36:11;;;;;;;17.27;3.60;;;12.30;99.90;;;;;;5113015;27;20965;-88
2023/06/02 05:38:42;;;;;;;13.70;2.83;;;12.30;99.90;;;;;;5113318;27;20453;-89
2023/06/02 05:41:08;;;;;;;18.08;3.50;;;12.40;99.90;;;;;;5130201;27;20524;-89
2023/06/02 05:43:34;;;;;;;13.45;3.20;;;12.40;99.90;;;;;;5113086;27;20424;-88
2023/06/02 05:45:59;;;;;;;17.83;3.75;;;12.50;99.90;;;;;;5112783;27;20419;-88
2023/06/02 05:48:25;;;;;;;16.27;2.97;;;12.50;99.90;;;;;;5113396;27;20401;-89
2023/06/02 05:50:51;;;;;;;19.05;3.10;;;12.50;99.90;;;;;;5130131;27;20529;-88
2023/06/02 05:53:16;;;;;;;18.25;3.22;;;12.60;99.90;;;;;;5129791;27;20389;-89
2023/06/02 05:55:42;;;;;;;19.47;3.57;;;12.80;99.90;;;;;;5113418;27;20835;-89
2023/06/02 05:58:08;;;;;;;14.50;3.10;;;12.80;99.90;;;;;;5113152;27;20393;-88
2023/06/02 06:00:34;;;;;;;17.17;3.03;;;12.70;99.90;;;;;;5113258;27;20927;-89
2023/06/02 06:02:59;;;;;;;17.23;3.70;;;12.80;99.90;;;;;;5112621;27;20436;-88
2023/06/02 06:05:25;;;;;;;17.55;3.90;;;12.80;99.90;;;;;;5113369;27;20413;-89
2023/06/02 06:07:51;;;;;;;20.35;3.45;;;13.00;99.90;;;;;;5112411;27;20409;-88
2023/06/02 06:10:16;;;;;;;21.57;3.90;;;13.00;99.90;;;;;;5113327;27;20430;-88
2023/06/02 06:12:42;;;;;;;18.80;4.07;;;13.10;99.90;;;;;;5129807;27;20440;-88
2023/06/02 06:15:08;;;;;;;19.97;3.83;;;13.10;99.90;;;;;;5111986;27;20408;-88
2023/06/02 06:17:34;;;;;;;17.80;3.30;;;13.20;99.90;;;;;;5112622;27;20408;-88
2023/06/02 06:20:01;;;;;;;21.47;4.17;;;13.30;99.90;;;;;;5129368;27;20404;-88
2023/06/02 06:22:26;;;;;;;24.85;4.20;;;13.30;99.90;;;;;;5112784;27;20412;-89
2023/06/02 06:24:52;;;;;;;18.77;3.77;;;13.40;99.90;;;;;;5112138;27;20412;-88
2023/06/02 06:27:17;;;;;;;18.73;3.63;;;13.60;99.90;;;;;;5112359;27;20389;-90
2023/06/02 06:29:43;;;;;;;21.43;3.67;;;13.50;99.90;;;;;;5112772;27;20458;-88
2023/06/02 06:32:09;;;;;;;20.00;4.07;;;13.60;99.90;;;;;;5112067;27;20457;-89
2023/06/02 06:34:34;;;;;;;20.40;3.87;;;13.60;99.90;;;;;;5112956;27;20424;-90
2023/06/02 06:37:00;;;;;;;20.98;3.97;;;13.70;99.90;;;;;;5112636;27;20890;-88
2023/06/02 06:39:25;;;;;;;17.70;3.60;;;14.10;99.90;;;;;;5113381;27;20401;-89
2023/06/02 06:41:51;;;;;;;20.50;4.18;;;14.30;99.90;;;;;;5112498;27;20399;-89
2023/06/02 06:44:17;;;;;;;21.20;3.90;;;14.20;99.90;;;;;;5112526;27;20424;-89
2023/06/02 06:46:42;;;;;;;19.25;4.00;;;14.30;99.90;;;;;;5112786;27;20834;-89
2023/06/02 06:49:08;;;;;;;21.83;4.53;;;14.30;99.90;;;;;;5113235;27;20409;-90
2023/06/02 06:51:34;;;;;;;17.35;3.95;;;14.40;99.90;;;;;;5112837;27;20393;-91
2023/06/02 06:53:59;;;;;;;17.87;4.00;;;14.50;99.90;;;;;;5112127;27;20401;-89
2023/06/02 06:56:25;;;;;;;20.95;4.07;;;14.60;99.90;;;;;;5128731;27;20584;-89
2023/06/02 06:58:51;;;;;;;19.33;4.20;;;14.70;99.90;;;;;;5111822;27;20764;-88
2023/06/02 07:01:17;;;;;;;18.85;3.85;;;14.80;99.90;;;;;;5112223;27;20408;-90
2023/06/02 07:03:43;;;;;;;21.00;3.93;;;14.80;99.90;;;;;;5112281;27;20417;-89
2023/06/02 07:06:08;;;;;;;15.80;3.58;;;14.90;99.90;;;;;;5112472;27;20417;-89
2023/06/02 07:08:35;;;;;;;22.00;3.57;;;14.90;99.90;;;;;;5111957;27;20447;-88
2023/06/02 07:11:01;;;;;;;18.73;4.00;;;14.90;99.90;;;;;;5129121;27;20411;-88
2023/06/02 07:13:27;;;;;;;16.83;3.63;;;15.00;99.90;;;;;;5112302;27;20418;-89
2023/06/02 07:15:53;;;;;;;16.33;3.45;;;15.10;99.90;;;;;;5111812;27;20400;-89
2023/06/02 07:18:18;;;;;;;17.08;3.55;;;15.30;99.90;;;;;;5112191;27;20480;-90
2023/06/02 07:20:44;;;;;;;16.20;3.70;;;15.50;99.90;;;;;;5112063;27;20400;-89
2023/06/02 07:23:10;;;;;;;18.58;3.72;;;15.80;99.90;;;;;;5111942;27;20424;-89
2023/06/02 07:25:36;;;;;;;19.03;4.17;;;15.80;99.90;;;;;;5111528;27;20393;-89
2023/06/02 07:28:05;;;;;;;19.33;3.53;;;16.10;99.90;;;;;;5111845;27;20903;-89
2023/06/02 07:30:31;;;;;;;18.50;3.55;;;15.90;99.90;;;;;;5111787;27;20397;-89
2023/06/02 07:32:57;;;;;;;16.40;3.22;;;15.80;99.90;;;;;;5111601;27;20404;-90
2023/06/02 07:35:23;;;;;;;18.27;3.70;;;15.90;99.90;;;;;;5112010;27;20394;-90
2023/06/02 07:37:55;;;;;;;17.80;2.90;;;15.80;99.90;;;;;;5111679;27;20436;-90
2023/06/02 07:40:21;;;;;;;17.80;3.53;;;16.00;99.90;;;;;;5112375;27;20401;-89
2023/06/02 07:42:46;;;;;;;21.50;3.53;;;16.30;99.90;;;;;;5111925;27;20768;-90
2023/06/02 07:45:12;;;;;;;18.05;2.90;;;16.10;99.90;;;;;;5111841;27;21007;-90
2023/06/02 07:47:38;;;;;;;16.60;2.80;;;16.30;99.90;;;;;;5111752;27;20409;-88
2023/06/02 07:50:04;;;;;;;17.77;2.75;;;16.30;99.90;;;;;;5112030;27;20396;-89
2023/06/02 07:52:29;;;;;;;15.20;3.17;;;16.30;99.90;;;;;;5112655;27;20389;-91
2023/06/02 07:54:55;;;;;;;19.33;2.97;;;16.60;99.90;;;;;;5111273;27;20981;-88
2023/06/02 07:57:21;;;;;;;17.77;2.95;;;16.70;99.90;;;;;;5112054;27;20895;-90
2023/06/02 07:59:49;;;;;;;15.13;2.97;;;16.90;99.90;;;;;;5111486;27;20447;-90
2023/06/02 08:02:15;;;;;;;16.52;2.75;;;16.90;99.90;;;;;;5111707;27;20451;-89
2023/06/02 08:04:40;;;;;;;13.90;2.75;;;16.90;99.90;;;;;;5111882;27;20397;-88
2023/06/02 08:07:06;;;;;;;14.30;2.50;;;17.10;99.90;;;;;;5129496;27;20405;-90
2023/06/02 08:09:31;;;;;;;13.27;2.75;;;17.40;99.90;;;;;;5115194;27;20385;-89
2023/06/02 08:11:57;;;;;;;15.67;2.80;;;17.70;99.90;;;;;;5114712;27;20787;-88
2023/06/02 08:14:23;;;;;;;12.65;2.22;;;17.50;99.90;;;;;;5116116;27;20756;-90
2023/06/02 08:16:50;;;;;;;14.57;2.30;;;17.90;99.90;;;;;;5115271;27;20385;-90
2023/06/02 08:19:17;;;;;;;13.48;2.20;;;18.30;99.90;;;;;;5115343;27;20439;-92
2023/06/02 08:21:43;;;;;;;11.07;1.47;;;18.40;99.90;;;;;;5115318;27;20385;-90
2023/06/02 08:24:08;;;;;;;12.15;2.10;;;18.90;99.90;;;;;;5115217;27;20421;-90
2023/06/02 08:26:39;;;;;;;12.20;1.90;;;18.80;99.90;;;;;;5115007;27;20419;-90
2023/06/02 08:29:08;;;;;;;14.80;2.38;;;18.90;99.90;;;;;;5114952;27;20441;-90
2023/06/02 08:31:35;;;;;;;11.57;1.70;;;19.30;99.70;;;;;;5115118;27;20396;-89
2023/06/02 08:34:04;;;;;;;10.97;2.37;;;19.30;99.90;;;;;;5114753;27;20747;-89
2023/06/02 08:36:32;;;;;;;11.65;2.30;;;19.00;99.90;;;;;;5115483;27;20397;-91
2023/06/02 08:38:58;;;;;;;12.95;1.83;;;19.00;99.90;;;;;;5114696;27;20445;-90
2023/06/02 08:41:25;;;;;;;11.35;1.55;;;19.10;99.90;;;;;;5115502;27;20385;-91
2023/06/02 08:43:52;;;;;;;10.45;2.10;;;19.20;99.90;;;;;;5114801;27;20447;-91
2023/06/02 08:46:17;;;;;;;10.02;2.13;;;19.30;97.30;;;;;;5115079;27;20855;-90
2023/06/02 08:48:47;;;;;;;11.93;1.80;;;19.20;99.70;;;;;;5115292;27;20409;-90
2023/06/02 08:51:22;;;;;;;9.93;1.60;;;19.60;99.90;;;;;;5131614;27;20385;-89
2023/06/02 08:53:48;;;;;;;11.05;1.85;;;19.30;99.90;;;;;;5115429;27;20899;-90
2023/06/02 08:56:15;;;;;;;7.72;1.42;;;19.70;99.90;;;;;;5114978;27;20408;-89
2023/06/02 08:58:45;;;;;;;7.60;1.30;;;19.50;99.90;;;;;;5115239;27;20442;-90
2023/06/02 09:01:11;;;;;;;10.45;1.83;;;19.70;99.70;;;;;;5114360;27;20578;-90
2023/06/02 09:03:36;;;;;;;9.02;1.42;;;19.70;98.60;;;;;;5115276;27;20496;-91
2023/06/02 09:06:26;;;;;;;9.52;1.63;;;19.90;99.90;;;;;;5114752;27;20476;-90
2023/06/02 09:09:00;;;;;;;8.85;1.10;;;20.00;99.20;;;;;;5114462;27;20438;-90
2023/06/02 09:11:30;;;;;;;7.30;1.38;;;20.30;99.80;;;;;;5114574;27;20405;-90
2023/06/02 09:13:57;;;;;;;10.18;1.20;;;20.60;96.30;;;;;;5114442;27;20401;-90
2023/06/02 09:16:34;;;;;;;6.95;1.25;;;20.30;95.40;;;;;;5114767;27;20525;-89
2023/06/02 09:19:00;;;;;;;9.95;0.88;;;20.30;93.10;;;;;;5131116;27;20771;-89
2023/06/02 09:21:32;;;;;;;5.50;0.90;;;20.40;83.80;;;;;;5114331;27;20832;-91
2023/06/02 09:24:01;;;;;;;6.47;0.90;;;20.50;82.10;;;;;;5113933;27;20815;-89
2023/06/02 09:26:30;;;;;;;6.65;1.02;;;20.50;84.30;;;;;;5113656;27;20401;-89
2023/06/02 09:29:06;;;;;;;6.00;0.80;;;20.70;89.90;;;;;;5131248;27;20480;-89
2023/06/02 09:31:52;;;;;;;7.63;1.10;;;20.70;84.30;;;;;;5114109;27;20492;-90
2023/06/02 09:34:19;;;;;;;5.57;0.73;;;20.70;89.30;;;;;;5113867;27;20407;-90
2023/06/02 09:36:53;;;;;;;6.30;0.60;;;20.90;73.20;;;;;;5113915;27;20393;-90
2023/06/02 09:39:38;;;;;;;5.72;0.80;;;21.10;71.60;;;;;;5113743;27;20438;-89
2023/06/02 09:42:04;;;;;;;7.35;0.80;;;21.10;74.30;;;;;;5131293;27;20413;-91
2023/06/02 09:44:30;;;;;;;5.18;0.60;;;21.20;78.80;;;;;;5113019;27;20400;-89
2023/06/02 09:46:56;;;;;;;4.40;0.60;;;21.30;70.70;;;;;;5113722;27;20412;-90
2023/06/02 09:49:21;;;;;;;3.72;0.60;;;21.40;69.40;;;;;;5114082;27;20389;-90
2023/06/02 09:51:47;;;;;;;4.50;0.50;;;21.40;68.50;;;;;;5130547;27;20397;-90
2023/06/02 09:54:13;;;;;;;4.77;0.63;;;21.70;64.40;;;;;;5114133;27;20442;-89
2023/06/02 09:56:40;;;;;;;4.85;0.57;;;22.00;65.00;;;;;;5113307;27;20385;-91
2023/06/02 09:59:06;;;;;;;4.27;0.67;;;22.10;61.60;;;;;;5113553;27;20725;-90
2023/06/02 10:01:36;;;;;;;2.55;0.35;;;22.10;53.80;;;;;;5113632;27;20407;-91
2023/06/02 10:04:04;;;;;;;3.55;0.40;;;22.20;55.60;;;;;;5113050;27;20424;-89
2023/06/02 10:06:38;;;;;;;4.35;0.60;;;22.30;52.20;;;;;;5130586;27;20446;-91
2023/06/02 10:09:32;;;;;;;3.10;0.50;;;22.50;54.80;;;;;;5112865;27;20470;-90
2023/06/02 10:12:29;;;;;;;4.72;0.75;;;22.50;53.80;;;;;;5113443;27;20393;-90
2023/06/02 10:15:09;;;;;;;4.65;0.60;;;22.50;53.70;;;;;;5113200;27;20411;-90
2023/06/02 10:17:38;;;;;;;4.28;0.75;;;22.70;53.70;;;;;;5112505;27;20429;-92
2023/06/02 10:20:27;;;;;;;3.97;0.63;;;23.00;53.00;;;;;;5113164;27;20407;-90
2023/06/02 10:23:17;;;;;;;3.83;0.35;;;23.20;51.60;;;;;;5112678;27;20417;-90
2023/06/02 10:25:51;;;;;;;4.25;0.30;;;23.40;49.60;;;;;;5113164;27;20852;-90
2023/06/02 10:28:17;;;;;;;3.15;0.30;;;23.40;46.50;;;;;;5113355;27;20436;-90
2023/06/02 10:30:44;;;;;;;3.13;0.40;;;23.40;47.30;;;;;;5112414;27;20442;-91
2023/06/02 10:33:10;;;;;;;3.60;0.30;;;23.70;46.70;;;;;;5113161;27;20398;-92
2023/06/02 10:35:57;;;;;;;3.95;0.50;;;23.80;47.60;;;;;;5112852;27;20741;-92
2023/06/02 10:38:33;;;;;;;2.50;0.30;;;24.20;46.70;;;;;;5112857;27;20417;-89
2023/06/02 10:40:59;;;;;;;3.13;0.43;;;24.30;44.90;;;;;;5113345;27;20397;-91
2023/06/02 10:43:25;;;;;;;2.38;0.30;;;24.60;43.20;;;;;;5129388;27;20447;-90
2023/06/02 10:45:51;;;;;;;3.70;0.30;;;24.60;40.30;;;;;;5112816;27;20906;-92
2023/06/02 10:48:36;;;;;;;4.13;0.67;;;24.60;43.20;;;;;;5112595;27;20499;-91
2023/06/02 10:51:02;;;;;;;3.93;0.40;;;24.90;39.50;;;;;;5112868;27;20436;-91
2023/06/02 10:53:28;;;;;;;2.10;0.40;;;25.10;40.90;;;;;;5112875;27;20887;-92
2023/06/02 10:55:54;;;;;;;2.60;0.40;;;25.20;39.10;;;;;;5129669;27;20526;-92
2023/06/02 10:58:21;;;;;;;2.17;0.40;;;25.40;39.10;;;;;;5112316;27;20401;-91
2023/06/02 11:00:49;;;;;;;3.08;0.40;;;25.60;39.50;;;;;;5112722;27;20411;-91
2023/06/02 11:03:15;;;;;;;2.88;0.35;;;25.70;38.00;;;;;;5112306;27;20417;-90
2023/06/02 11:05:42;;;;;;;2.50;0.30;;;25.70;39.80;;;;;;5112518;27;20400;-91
2023/06/02 11:08:21;;;;;;;1.73;0.30;;;26.00;39.00;;;;;;5112539;27;20392;-92
2023/06/02 11:10:49;;;;;;;2.35;0.30;;;25.90;38.50;;;;;;5112273;27;20424;-90
2023/06/02 11:13:19;;;;;;;2.80;0.40;;;25.70;36.70;;;;;;5112698;27;20551;-90
2023/06/02 11:15:54;;;;;;;1.83;0.30;;;25.80;39.10;;;;;;5129722;27;20428;-91
2023/06/02 11:18:23;;;;;;;2.13;0.30;;;26.10;39.40;;;;;;5112128;27;20416;-90
2023/06/02 11:20:50;;;;;;;2.78;0.20;;;26.40;36.00;;;;;;5112439;27;20425;-89
2023/06/02 11:23:20;;;;;;;3.60;0.30;;;26.50;35.00;;;;;;5129065;27;20760;-92
2023/06/02 11:25:49;;;;;;;1.67;0.22;;;26.50;37.00;;;;;;5112485;27;20401;-90
2023/06/02 11:28:21;;;;;;;3.87;0.30;;;26.70;36.70;;;;;;5111611;27;20892;-92
2023/06/02 11:31:06;;;;;;;3.30;0.32;;;27.10;37.20;;;;;;5112105;27;20477;-92
2023/06/02 11:33:34;;;;;;;3.45;0.60;;;27.20;39.60;;;;;;5112122;27;20446;-91
2023/06/02 11:36:01;;;;;;;2.90;0.50;;;27.30;38.90;;;;;;5129526;27;21028;-91
2023/06/02 11:38:32;;;;;;;4.15;0.77;;;27.50;40.30;;;;;;5112772;27;20759;-90
2023/06/02 11:41:13;;;;;;;3.75;0.52;;;27.50;39.20;;;;;;5128779;27;20509;-90
2023/06/02 11:43:50;;;;;;;5.63;0.50;;;27.40;41.80;;;;;;5116171;27;20420;-91
2023/06/02 11:46:17;;;;;;;2.95;0.50;;;27.30;39.70;;;;;;5116263;27;20500;-92
2023/06/02 11:48:43;;;;;;;4.55;0.55;;;27.20;42.30;;;;;;5116136;27;20513;-91
2023/06/02 11:51:15;;;;;;;5.25;0.85;;;27.40;41.20;;;;;;5116806;27;20910;-91
2023/06/02 11:53:45;;;;;;;4.63;0.80;;;27.60;41.10;;;;;;5116120;27;20401;-91
2023/06/02 11:56:15;;;;;;;4.50;0.80;;;27.60;42.60;;;;;;5117025;27;20728;-90
2023/06/02 11:58:43;;;;;;;5.05;0.95;;;27.90;41.80;;;;;;5133059;27;20455;-92
2023/06/02 12:01:19;;;;;;;3.38;0.73;;;28.30;43.20;;;;;;5132967;27;20403;-90
2023/06/02 12:04:05;;;;;;;4.43;0.88;;;28.70;41.30;;;;;;5115771;27;20428;-90
2023/06/02 12:06:47;;;;;;;5.15;0.80;;;28.80;42.00;;;;;;5115667;27;20481;-93
2023/06/02 12:09:14;;;;;;;5.10;1.05;;;28.90;41.90;;;;;;5133036;27;20401;-90
2023/06/02 12:11:40;;;;;;;5.47;1.08;;;28.80;40.60;;;;;;5115744;27;20405;-91
2023/06/02 12:14:07;;;;;;;5.15;0.80;;;28.60;41.70;;;;;;5115519;27;20485;-92
2023/06/02 12:16:34;;;;;;;3.42;0.90;;;28.30;41.60;;;;;;5115363;27;20403;-90
2023/06/02 12:19:20;;;;;;;6.13;1.15;;;28.00;42.20;;;;;;5115129;27;20895;-91
2023/06/02 12:21:47;;;;;;;6.60;1.38;;;27.40;43.00;;;;;;5115940;27;20412;-91
2023/06/02 12:24:38;;;;;;;6.65;1.70;;;27.20;44.10;;;;;;5115008;27;20427;-91
2023/06/02 12:27:07;;;;;;;6.13;1.10;;;27.30;45.00;;;;;;5115379;27;20877;-92
2023/06/02 12:29:34;;;;;;;6.03;1.20;;;27.20;44.70;;;;;;5132369;27;20404;-91
2023/06/02 12:32:01;;;;;;;6.95;1.25;;;27.10;44.20;;;;;;5131840;27;20411;-91
2023/06/02 12:34:28;;;;;;;4.95;1.10;;;27.10;45.20;;;;;;5115521;27;20489;-90
2023/06/02 12:36:55;;;;;;;5.78;1.33;;;27.00;44.30;;;;;;5115070;27;20404;-91
2023/06/02 12:39:21;;;;;;;5.30;1.30;;;27.00;45.50;;;;;;5115320;27;20413;-92
2023/06/02 12:41:46;;;;;;;5.65;1.33;;;27.10;45.20;;;;;;5114682;27;20397;-92
2023/06/02 12:44:12;;;;;;;9.77;1.70;;;27.50;45.60;;;;;;5114861;27;20469;-91